Roza A — TCRB7 — position and weather

sailwx.info

Track history (hours):
 
Tides and Currents Weather Stations Pressure Air Temp Water Temp Dewpoint Dewpoint Depression Visibility Wind Speed Wind Dir Waves Ship Positions

Roza A

Last reported at 2014-Oct-31 10:31 UTC. Time now 2014-Oct-31 10:51 UTC.
Position N 37°57' E 023°36'.

Length 169 m; draft 7.7 m.

Type: Ship (hazmat cat A). MMSI: 271001057.

Date/timePositionNaut miles runAvg speedWind from/ knotsBaromVisibWave heightAir tempDewpointWater temp
2014-Oct-31 10:31N 37°57' E 023°36'0 0.0
2014-Oct-31 09:25N 37°57' E 023°36'0 0.0
2014-Oct-31 08:31N 37°57' E 023°36'0 0.0
2014-Oct-31 07:31N 37°57' E 023°36'0 0.0
2014-Oct-31 06:31N 37°57' E 023°36'0 0.0
2014-Oct-31 05:31N 37°57' E 023°36'3 2.9
2014-Oct-31 04:33N 37°55' E 023°36'3 2.7
2014-Oct-31 03:33N 37°52' E 023°38'10 9.5
2014-Oct-31 02:33N 37°44' E 023°43'10 9.6
2014-Oct-31 01:33N 37°34' E 023°43'1110.2
2014-Oct-31 00:31N 37°24' E 023°40'2110.8
2014-Oct-30 22:33N 37°05' E 023°28'355 8.8
2014-Oct-29 06:17N 37°46' E 016°04'53110.7
2014-Oct-27 04:32N 42°28' E 006°16'1313.4
2014-Oct-27 03:33N 42°36' E 006°01'1313.2
2014-Oct-27 02:33N 42°43' E 005°46'0 0.5
2014-Oct-27 01:33N 42°44' E 005°46'1 1.0
2014-Oct-27 00:33N 42°44' E 005°47'1 0.9
2014-Oct-26 23:33N 42°44' E 005°48'1 0.9
2014-Oct-26 22:33N 42°43' E 005°50'0 0.2
2014-Oct-26 21:33N 42°43' E 005°50'9 9.4
2014-Oct-26 20:33N 42°49' E 005°40'1010.3
2014-Oct-26 19:33N 42°55' E 005°28'1010.0
2014-Oct-26 18:33N 43°01' E 005°18'1010.2
2014-Oct-26 17:33N 43°08' E 005°07'10 9.8
2014-Oct-26 16:33N 43°16' E 004°60'9 9.4
2014-Oct-26 15:33N 43°24' E 004°53'2 1.6
2014-Oct-26 14:31N 43°25' E 004°51'0 0.0
2014-Oct-26 13:28N 43°25' E 004°51'0 0.0
2014-Oct-26 12:31N 43°25' E 004°51'0 0.0
2014-Oct-26 11:31N 43°25' E 004°51'0 0.0
2014-Oct-26 10:31N 43°25' E 004°51'0 0.0
2014-Oct-26 09:28N 43°25' E 004°51'0 0.0
2014-Oct-26 08:28N 43°25' E 004°51'0 0.0
2014-Oct-26 07:31N 43°25' E 004°51'0 0.0
2014-Oct-26 06:31N 43°25' E 004°51'0 0.0
2014-Oct-26 05:31N 43°25' E 004°51'0 0.0
2014-Oct-26 04:31N 43°25' E 004°51'0 0.0
2014-Oct-26 03:31N 43°25' E 004°51'0 0.0
2014-Oct-26 02:31N 43°25' E 004°51'0 0.0
2014-Oct-26 01:28N 43°25' E 004°51'0 0.0
2014-Oct-26 00:33N 43°25' E 004°51'0 0.0
2014-Oct-25 23:30N 43°25' E 004°51'0 0.0
2014-Oct-25 22:33N 43°25' E 004°51'0 0.0
2014-Oct-25 21:27N 43°25' E 004°51'0 0.0
2014-Oct-25 20:33N 43°25' E 004°51'0 0.0
2014-Oct-25 19:33N 43°25' E 004°51'0 0.0
2014-Oct-25 18:33N 43°25' E 004°51'0 0.0
2014-Oct-25 17:33N 43°25' E 004°51'0 0.0
2014-Oct-25 16:30N 43°25' E 004°51'0 0.0
2014-Oct-25 15:33N 43°25' E 004°51'0 0.0
2014-Oct-25 14:33N 43°25' E 004°51'0 0.2
2014-Oct-25 13:34N 43°25' E 004°51'3 3.0
2014-Oct-25 12:28N 43°24' E 004°55'0 0.0
2014-Oct-25 11:28N 43°24' E 004°55'0 0.0
2014-Oct-25 10:31N 43°24' E 004°55'0 0.0
2014-Oct-25 09:31N 43°24' E 004°55'0 0.0
2014-Oct-25 08:31N 43°24' E 004°55'0 0.0
2014-Oct-25 07:31N 43°24' E 004°55'0 0.0
2014-Oct-25 06:31N 43°24' E 004°55'0 0.0
2014-Oct-25 05:25N 43°24' E 004°55'0 0.0
2014-Oct-25 04:31N 43°24' E 004°55'0 0.0
2014-Oct-25 03:31N 43°24' E 004°55'0 0.0
2014-Oct-25 02:31N 43°24' E 004°55'0 0.0
2014-Oct-25 01:28N 43°24' E 004°55'0 0.0
2014-Oct-25 00:31N 43°24' E 004°55'0 0.0
2014-Oct-24 23:31N 43°24' E 004°55'0 0.1
2014-Oct-24 22:33N 43°24' E 004°55'7 7.1
2014-Oct-24 21:33N 43°18' E 004°60'10 9.7
2014-Oct-24 20:33N 43°08' E 004°59'1414.1
2014-Oct-24 19:33N 42°58' E 004°47'1413.7
2014-Oct-24 18:31N 42°47' E 004°34'1413.3
2014-Oct-24 17:28N 42°37' E 004°21'1414.0
2014-Oct-24 16:28N 42°26' E 004°09'1414.2
2014-Oct-24 15:28N 42°15' E 003°57'1513.3
2014-Oct-24 14:19N 42°03' E 003°43'1313.2
2014-Oct-24 13:21N 41°53' E 003°33'1114.2
2014-Oct-24 12:34N 41°47' E 003°21'1813.8
2014-Oct-24 11:14N 41°37' E 003°00'1114.6
2014-Oct-24 10:29N 41°31' E 002°47'1614.3
2014-Oct-24 09:20N 41°24' E 002°28'13 0.8
2014-Oct-23 16:08N 41°21' E 002°10'3913.2
2014-Oct-23 13:11N 40°48' E 001°42'1110.6
2014-Oct-23 12:12N 40°40' E 001°33'1514.6
2014-Oct-23 11:10N 40°32' E 001°16'1514.4
2014-Oct-23 10:06N 40°24' E 000°59'1414.4
2014-Oct-23 09:07N 40°16' E 000°44'1614.7
2014-Oct-23 08:03N 40°07' E 000°27'42 3.5
2014-Oct-22 20:18N 39°34' W 000°06'1114.8
2014-Oct-22 19:33N 39°26' W 000°15'3 2.9
2014-Oct-22 18:30N 39°27' W 000°19'0 0.0
2014-Oct-22 17:33N 39°27' W 000°19'0 0.0
2014-Oct-22 16:33N 39°27' W 000°19'0 0.0
2014-Oct-22 15:33N 39°27' W 000°19'0 0.0
2014-Oct-22 14:33N 39°27' W 000°19'0 0.0
2014-Oct-22 13:33N 39°27' W 000°19'0 0.0
2014-Oct-22 12:33N 39°27' W 000°19'0 0.0
2014-Oct-22 11:33N 39°27' W 000°19'0 0.0
2014-Oct-22 10:33N 39°27' W 000°19'0 0.0
2014-Oct-22 09:33N 39°27' W 000°19'0 0.0
2014-Oct-22 08:33N 39°27' W 000°19'0 0.0
2014-Oct-22 07:33N 39°27' W 000°19'0 0.0
2014-Oct-22 06:33N 39°27' W 000°19'0 0.0
2014-Oct-22 05:33N 39°27' W 000°19'0 0.0
2014-Oct-22 04:33N 39°27' W 000°19'5 5.0
2014-Oct-22 03:33N 39°24' W 000°13'6 5.9
2014-Oct-22 02:31N 39°24' W 000°05'1110.9
2014-Oct-22 01:30N 39°22' E 000°09'7810.9
2014-Oct-21 18:23N 39°12' E 001°48'910.8
2014-Oct-21 17:33N 39°11' E 001°60'1610.9
2014-Oct-21 16:06N 39°08' E 002°20'910.7
2014-Oct-21 15:16N 39°07' E 002°31'810.6
2014-Oct-21 14:33N 39°05' E 002°41'1010.4
2014-Oct-21 13:33N 39°04' E 002°54'1110.4
2014-Oct-21 12:29N 39°04' E 003°08'2814.3
2014-Oct-21 10:33N 39°02' E 003°44'  
Track history (hours):
 
Tides and Currents Weather Stations Pressure Air Temp Water Temp Dewpoint Dewpoint Depression Visibility Wind Speed Wind Dir Waves Ship Positions

Roza A

Last reported at 2014-Oct-31 10:31 UTC. Time now 2014-Oct-31 10:51 UTC.
Position N 37°57' E 023°36'.

Length 169 m; draft 7.7 m.

Type: Ship (hazmat cat A). MMSI: 271001057.

Date/timePositionNaut miles runAvg speedWind from/ knotsBaromVisibWave heightAir tempDewpointWater temp
2014-Oct-31 10:31N 37°57' E 023°36'0 0.0
2014-Oct-31 09:25N 37°57' E 023°36'0 0.0
2014-Oct-31 08:31N 37°57' E 023°36'0 0.0
2014-Oct-31 07:31N 37°57' E 023°36'0 0.0
2014-Oct-31 06:31N 37°57' E 023°36'0 0.0
2014-Oct-31 05:31N 37°57' E 023°36'3 2.9
2014-Oct-31 04:33N 37°55' E 023°36'3 2.7
2014-Oct-31 03:33N 37°52' E 023°38'10 9.5
2014-Oct-31 02:33N 37°44' E 023°43'10 9.6
2014-Oct-31 01:33N 37°34' E 023°43'1110.2
2014-Oct-31 00:31N 37°24' E 023°40'2110.8
2014-Oct-30 22:33N 37°05' E 023°28'355 8.8
2014-Oct-29 06:17N 37°46' E 016°04'53110.7
2014-Oct-27 04:32N 42°28' E 006°16'1313.4
2014-Oct-27 03:33N 42°36' E 006°01'1313.2
2014-Oct-27 02:33N 42°43' E 005°46'0 0.5
2014-Oct-27 01:33N 42°44' E 005°46'1 1.0
2014-Oct-27 00:33N 42°44' E 005°47'1 0.9
2014-Oct-26 23:33N 42°44' E 005°48'1 0.9
2014-Oct-26 22:33N 42°43' E 005°50'0 0.2
2014-Oct-26 21:33N 42°43' E 005°50'9 9.4
2014-Oct-26 20:33N 42°49' E 005°40'1010.3
2014-Oct-26 19:33N 42°55' E 005°28'1010.0
2014-Oct-26 18:33N 43°01' E 005°18'1010.2
2014-Oct-26 17:33N 43°08' E 005°07'10 9.8
2014-Oct-26 16:33N 43°16' E 004°60'9 9.4
2014-Oct-26 15:33N 43°24' E 004°53'2 1.6
2014-Oct-26 14:31N 43°25' E 004°51'0 0.0
2014-Oct-26 13:28N 43°25' E 004°51'0 0.0
2014-Oct-26 12:31N 43°25' E 004°51'0 0.0
2014-Oct-26 11:31N 43°25' E 004°51'0 0.0
2014-Oct-26 10:31N 43°25' E 004°51'0 0.0
2014-Oct-26 09:28N 43°25' E 004°51'0 0.0
2014-Oct-26 08:28N 43°25' E 004°51'0 0.0
2014-Oct-26 07:31N 43°25' E 004°51'0 0.0
2014-Oct-26 06:31N 43°25' E 004°51'0 0.0
2014-Oct-26 05:31N 43°25' E 004°51'0 0.0
2014-Oct-26 04:31N 43°25' E 004°51'0 0.0
2014-Oct-26 03:31N 43°25' E 004°51'0 0.0
2014-Oct-26 02:31N 43°25' E 004°51'0 0.0
2014-Oct-26 01:28N 43°25' E 004°51'0 0.0
2014-Oct-26 00:33N 43°25' E 004°51'0 0.0
2014-Oct-25 23:30N 43°25' E 004°51'0 0.0
2014-Oct-25 22:33N 43°25' E 004°51'0 0.0
2014-Oct-25 21:27N 43°25' E 004°51'0 0.0
2014-Oct-25 20:33N 43°25' E 004°51'0 0.0
2014-Oct-25 19:33N 43°25' E 004°51'0 0.0
2014-Oct-25 18:33N 43°25' E 004°51'0 0.0
2014-Oct-25 17:33N 43°25' E 004°51'0 0.0
2014-Oct-25 16:30N 43°25' E 004°51'0 0.0
2014-Oct-25 15:33N 43°25' E 004°51'0 0.0
2014-Oct-25 14:33N 43°25' E 004°51'0 0.2
2014-Oct-25 13:34N 43°25' E 004°51'3 3.0
2014-Oct-25 12:28N 43°24' E 004°55'0 0.0
2014-Oct-25 11:28N 43°24' E 004°55'0 0.0
2014-Oct-25 10:31N 43°24' E 004°55'0 0.0
2014-Oct-25 09:31N 43°24' E 004°55'0 0.0
2014-Oct-25 08:31N 43°24' E 004°55'0 0.0
2014-Oct-25 07:31N 43°24' E 004°55'0 0.0
2014-Oct-25 06:31N 43°24' E 004°55'0 0.0
2014-Oct-25 05:25N 43°24' E 004°55'0 0.0
2014-Oct-25 04:31N 43°24' E 004°55'0 0.0
2014-Oct-25 03:31N 43°24' E 004°55'0 0.0
2014-Oct-25 02:31N 43°24' E 004°55'0 0.0
2014-Oct-25 01:28N 43°24' E 004°55'0 0.0
2014-Oct-25 00:31N 43°24' E 004°55'0 0.0
2014-Oct-24 23:31N 43°24' E 004°55'0 0.1
2014-Oct-24 22:33N 43°24' E 004°55'7 7.1
2014-Oct-24 21:33N 43°18' E 004°60'10 9.7
2014-Oct-24 20:33N 43°08' E 004°59'1414.1
2014-Oct-24 19:33N 42°58' E 004°47'1413.7
2014-Oct-24 18:31N 42°47' E 004°34'1413.3
2014-Oct-24 17:28N 42°37' E 004°21'1414.0
2014-Oct-24 16:28N 42°26' E 004°09'1414.2
2014-Oct-24 15:28N 42°15' E 003°57'1513.3
2014-Oct-24 14:19N 42°03' E 003°43'1313.2
2014-Oct-24 13:21N 41°53' E 003°33'1114.2
2014-Oct-24 12:34N 41°47' E 003°21'1813.8
2014-Oct-24 11:14N 41°37' E 003°00'1114.6
2014-Oct-24 10:29N 41°31' E 002°47'1614.3
2014-Oct-24 09:20N 41°24' E 002°28'13 0.8
2014-Oct-23 16:08N 41°21' E 002°10'3913.2
2014-Oct-23 13:11N 40°48' E 001°42'1110.6
2014-Oct-23 12:12N 40°40' E 001°33'1514.6
2014-Oct-23 11:10N 40°32' E 001°16'1514.4
2014-Oct-23 10:06N 40°24' E 000°59'1414.4
2014-Oct-23 09:07N 40°16' E 000°44'1614.7
2014-Oct-23 08:03N 40°07' E 000°27'42 3.5
2014-Oct-22 20:18N 39°34' W 000°06'1114.8
2014-Oct-22 19:33N 39°26' W 000°15'3 2.9
2014-Oct-22 18:30N 39°27' W 000°19'0 0.0
2014-Oct-22 17:33N 39°27' W 000°19'0 0.0
2014-Oct-22 16:33N 39°27' W 000°19'0 0.0
2014-Oct-22 15:33N 39°27' W 000°19'0 0.0
2014-Oct-22 14:33N 39°27' W 000°19'0 0.0
2014-Oct-22 13:33N 39°27' W 000°19'0 0.0
2014-Oct-22 12:33N 39°27' W 000°19'0 0.0
2014-Oct-22 11:33N 39°27' W 000°19'0 0.0
2014-Oct-22 10:33N 39°27' W 000°19'0 0.0
2014-Oct-22 09:33N 39°27' W 000°19'0 0.0
2014-Oct-22 08:33N 39°27' W 000°19'0 0.0
2014-Oct-22 07:33N 39°27' W 000°19'0 0.0
2014-Oct-22 06:33N 39°27' W 000°19'0 0.0
2014-Oct-22 05:33N 39°27' W 000°19'0 0.0
2014-Oct-22 04:33N 39°27' W 000°19'5 5.0
2014-Oct-22 03:33N 39°24' W 000°13'6 5.9
2014-Oct-22 02:31N 39°24' W 000°05'1110.9
2014-Oct-22 01:30N 39°22' E 000°09'7810.9
2014-Oct-21 18:23N 39°12' E 001°48'910.8
2014-Oct-21 17:33N 39°11' E 001°60'1610.9
2014-Oct-21 16:06N 39°08' E 002°20'910.7
2014-Oct-21 15:16N 39°07' E 002°31'810.6
2014-Oct-21 14:33N 39°05' E 002°41'1010.4
2014-Oct-21 13:33N 39°04' E 002°54'1110.4
2014-Oct-21 12:29N 39°04' E 003°08'2814.3
2014-Oct-21 10:33N 39°02' E 003°44'  

Dump ship's entire track history